sensor_id;sensor_type;location;lat;lon;timestamp;P1;durP1;ratioP1;P2;durP2;ratioP2
20140;SDS011;10231;47.702;9.826;2022-08-18T00:01:03;7.53;;;6.83;;
20140;SDS011;10231;47.702;9.826;2022-08-18T00:03:29;6.87;;;6.27;;
20140;SDS011;10231;47.702;9.826;2022-08-18T00:05:55;5.93;;;5.43;;
20140;SDS011;10231;47.702;9.826;2022-08-18T00:08:21;5.10;;;4.80;;
20140;SDS011;10231;47.702;9.826;2022-08-18T00:10:46;5.13;;;4.73;;
20140;SDS011;10231;47.702;9.826;2022-08-18T00:13:12;5.73;;;5.30;;
20140;SDS011;10231;47.702;9.826;2022-08-18T00:15:38;5.23;;;4.83;;
20140;SDS011;10231;47.702;9.826;2022-08-18T00:18:03;4.80;;;4.50;;
20140;SDS011;10231;47.702;9.826;2022-08-18T00:20:29;4.93;;;4.53;;
20140;SDS011;10231;47.702;9.826;2022-08-18T00:22:54;5.27;;;4.23;;
20140;SDS011;10231;47.702;9.826;2022-08-18T00:25:20;4.50;;;4.17;;
20140;SDS011;10231;47.702;9.826;2022-08-18T00:27:47;4.73;;;4.40;;
20140;SDS011;10231;47.702;9.826;2022-08-18T00:30:14;4.80;;;4.50;;
20140;SDS011;10231;47.702;9.826;2022-08-18T00:32:44;4.60;;;4.30;;
20140;SDS011;10231;47.702;9.826;2022-08-18T00:35:18;5.20;;;4.80;;
20140;SDS011;10231;47.702;9.826;2022-08-18T00:37:46;5.00;;;4.60;;
20140;SDS011;10231;47.702;9.826;2022-08-18T00:40:15;4.87;;;4.47;;
20140;SDS011;10231;47.702;9.826;2022-08-18T00:42:44;11.63;;;9.70;;
20140;SDS011;10231;47.702;9.826;2022-08-18T00:45:16;12.70;;;11.30;;
20140;SDS011;10231;47.702;9.826;2022-08-18T00:47:45;14.87;;;12.70;;
20140;SDS011;10231;47.702;9.826;2022-08-18T00:50:18;13.60;;;10.93;;
20140;SDS011;10231;47.702;9.826;2022-08-18T00:52:52;9.80;;;8.90;;
20140;SDS011;10231;47.702;9.826;2022-08-18T00:55:25;8.17;;;7.33;;
20140;SDS011;10231;47.702;9.826;2022-08-18T00:57:54;6.37;;;5.80;;
20140;SDS011;10231;47.702;9.826;2022-08-18T01:00:25;5.70;;;5.30;;
20140;SDS011;10231;47.702;9.826;2022-08-18T01:02:53;5.20;;;4.80;;
20140;SDS011;10231;47.702;9.826;2022-08-18T01:05:25;4.87;;;4.47;;
20140;SDS011;10231;47.702;9.826;2022-08-18T01:07:57;6.03;;;4.60;;
20140;SDS011;10231;47.702;9.826;2022-08-18T01:10:23;5.30;;;4.87;;
20140;SDS011;10231;47.702;9.826;2022-08-18T01:12:51;5.40;;;5.00;;
20140;SDS011;10231;47.702;9.826;2022-08-18T01:15:18;5.60;;;5.10;;
20140;SDS011;10231;47.702;9.826;2022-08-18T01:17:46;4.73;;;4.43;;
20140;SDS011;10231;47.702;9.826;2022-08-18T01:24:01;5.20;;;4.80;;
20140;SDS011;10231;47.702;9.826;2022-08-18T01:26:29;5.60;;;5.03;;
20140;SDS011;10231;47.702;9.826;2022-08-18T01:29:05;5.03;;;4.67;;
20140;SDS011;10231;47.702;9.826;2022-08-18T01:31:49;5.20;;;4.80;;
20140;SDS011;10231;47.702;9.826;2022-08-18T01:34:20;6.10;;;4.87;;
20140;SDS011;10231;47.702;9.826;2022-08-18T01:36:49;5.40;;;5.00;;
20140;SDS011;10231;47.702;9.826;2022-08-18T01:39:16;5.00;;;4.50;;
20140;SDS011;10231;47.702;9.826;2022-08-18T01:41:43;5.07;;;4.67;;
20140;SDS011;10231;47.702;9.826;2022-08-18T01:44:08;5.10;;;4.70;;
20140;SDS011;10231;47.702;9.826;2022-08-18T01:46:35;5.57;;;5.17;;
20140;SDS011;10231;47.702;9.826;2022-08-18T01:49:03;5.43;;;4.93;;
20140;SDS011;10231;47.702;9.826;2022-08-18T01:51:30;5.63;;;5.23;;
20140;SDS011;10231;47.702;9.826;2022-08-18T01:53:56;5.30;;;4.90;;
20140;SDS011;10231;47.702;9.826;2022-08-18T01:56:23;5.53;;;5.00;;
20140;SDS011;10231;47.702;9.826;2022-08-18T01:58:51;5.07;;;4.67;;
20140;SDS011;10231;47.702;9.826;2022-08-18T02:01:18;5.43;;;5.03;;
20140;SDS011;10231;47.702;9.826;2022-08-18T02:03:46;5.27;;;4.77;;
20140;SDS011;10231;47.702;9.826;2022-08-18T02:06:15;4.53;;;4.13;;
20140;SDS011;10231;47.702;9.826;2022-08-18T02:08:43;5.40;;;5.00;;
20140;SDS011;10231;47.702;9.826;2022-08-18T02:11:09;5.37;;;4.87;;
20140;SDS011;10231;47.702;9.826;2022-08-18T02:13:35;4.63;;;4.33;;
20140;SDS011;10231;47.702;9.826;2022-08-18T02:16:01;5.37;;;4.87;;
20140;SDS011;10231;47.702;9.826;2022-08-18T02:18:29;5.90;;;5.40;;
20140;SDS011;10231;47.702;9.826;2022-08-18T02:21:08;5.53;;;5.13;;
20140;SDS011;10231;47.702;9.826;2022-08-18T02:23:39;5.73;;;5.27;;
20140;SDS011;10231;47.702;9.826;2022-08-18T02:26:07;6.33;;;5.73;;
20140;SDS011;10231;47.702;9.826;2022-08-18T02:28:34;5.50;;;5.10;;
20140;SDS011;10231;47.702;9.826;2022-08-18T02:31:10;5.57;;;5.17;;
20140;SDS011;10231;47.702;9.826;2022-08-18T02:33:44;5.20;;;4.80;;
20140;SDS011;10231;47.702;9.826;2022-08-18T02:36:10;6.27;;;5.63;;
20140;SDS011;10231;47.702;9.826;2022-08-18T02:38:37;5.63;;;5.23;;
20140;SDS011;10231;47.702;9.826;2022-08-18T02:41:04;6.00;;;5.50;;
20140;SDS011;10231;47.702;9.826;2022-08-18T02:43:31;5.63;;;5.10;;
20140;SDS011;10231;47.702;9.826;2022-08-18T02:45:57;5.33;;;4.93;;
20140;SDS011;10231;47.702;9.826;2022-08-18T02:48:23;5.60;;;5.10;;
20140;SDS011;10231;47.702;9.826;2022-08-18T02:50:58;4.80;;;4.40;;
20140;SDS011;10231;47.702;9.826;2022-08-18T02:53:36;5.40;;;5.00;;
20140;SDS011;10231;47.702;9.826;2022-08-18T02:56:14;5.93;;;5.43;;
20140;SDS011;10231;47.702;9.826;2022-08-18T03:01:26;5.40;;;5.00;;
20140;SDS011;10231;47.702;9.826;2022-08-18T03:03:53;7.97;;;5.50;;
20140;SDS011;10231;47.702;9.826;2022-08-18T03:06:20;6.30;;;5.80;;
20140;SDS011;10231;47.702;9.826;2022-08-18T03:08:46;5.37;;;4.87;;
20140;SDS011;10231;47.702;9.826;2022-08-18T03:11:19;6.17;;;4.90;;
20140;SDS011;10231;47.702;9.826;2022-08-18T03:13:46;5.10;;;4.70;;
20140;SDS011;10231;47.702;9.826;2022-08-18T03:16:12;5.57;;;5.17;;
20140;SDS011;10231;47.702;9.826;2022-08-18T03:18:40;5.97;;;5.47;;
20140;SDS011;10231;47.702;9.826;2022-08-18T03:21:13;5.70;;;5.27;;
20140;SDS011;10231;47.702;9.826;2022-08-18T03:23:40;6.17;;;5.57;;
20140;SDS011;10231;47.702;9.826;2022-08-18T03:26:08;5.83;;;5.30;;
20140;SDS011;10231;47.702;9.826;2022-08-18T03:28:36;5.00;;;4.70;;
20140;SDS011;10231;47.702;9.826;2022-08-18T03:31:03;6.27;;;5.77;;
20140;SDS011;10231;47.702;9.826;2022-08-18T03:33:29;5.73;;;5.33;;
20140;SDS011;10231;47.702;9.826;2022-08-18T03:35:54;6.40;;;5.77;;
20140;SDS011;10231;47.702;9.826;2022-08-18T03:38:20;5.67;;;5.13;;
20140;SDS011;10231;47.702;9.826;2022-08-18T03:40:52;6.80;;;6.27;;
20140;SDS011;10231;47.702;9.826;2022-08-18T03:43:18;6.93;;;5.93;;
20140;SDS011;10231;47.702;9.826;2022-08-18T03:45:44;5.67;;;5.17;;
20140;SDS011;10231;47.702;9.826;2022-08-18T03:48:10;5.63;;;5.13;;
20140;SDS011;10231;47.702;9.826;2022-08-18T03:50:36;6.30;;;5.80;;
20140;SDS011;10231;47.702;9.826;2022-08-18T03:53:02;6.37;;;5.77;;
20140;SDS011;10231;47.702;9.826;2022-08-18T03:55:29;6.37;;;5.83;;
20140;SDS011;10231;47.702;9.826;2022-08-18T03:57:59;5.80;;;5.40;;
20140;SDS011;10231;47.702;9.826;2022-08-18T04:00:29;6.80;;;6.20;;
20140;SDS011;10231;47.702;9.826;2022-08-18T04:02:57;6.20;;;5.70;;
20140;SDS011;10231;47.702;9.826;2022-08-18T04:05:25;5.97;;;5.47;;
20140;SDS011;10231;47.702;9.826;2022-08-18T04:07:52;6.03;;;5.63;;
20140;SDS011;10231;47.702;9.826;2022-08-18T04:10:18;7.33;;;6.77;;
20140;SDS011;10231;47.702;9.826;2022-08-18T04:12:44;6.60;;;6.00;;
20140;SDS011;10231;47.702;9.826;2022-08-18T04:15:10;6.40;;;5.90;;
20140;SDS011;10231;47.702;9.826;2022-08-18T04:17:35;12.17;;;10.97;;
20140;SDS011;10231;47.702;9.826;2022-08-18T04:20:02;8.73;;;7.83;;
20140;SDS011;10231;47.702;9.826;2022-08-18T04:22:28;6.20;;;5.80;;
20140;SDS011;10231;47.702;9.826;2022-08-18T04:24:57;6.70;;;6.20;;
20140;SDS011;10231;47.702;9.826;2022-08-18T04:27:25;6.57;;;6.07;;
20140;SDS011;10231;47.702;9.826;2022-08-18T04:29:52;6.97;;;6.37;;
20140;SDS011;10231;47.702;9.826;2022-08-18T04:32:20;7.30;;;6.60;;
20140;SDS011;10231;47.702;9.826;2022-08-18T04:34:46;6.80;;;6.30;;
20140;SDS011;10231;47.702;9.826;2022-08-18T04:37:12;7.30;;;6.57;;
20140;SDS011;10231;47.702;9.826;2022-08-18T04:39:39;6.90;;;6.30;;
20140;SDS011;10231;47.702;9.826;2022-08-18T04:42:05;7.07;;;6.47;;
20140;SDS011;10231;47.702;9.826;2022-08-18T04:44:31;7.13;;;6.43;;
20140;SDS011;10231;47.702;9.826;2022-08-18T04:46:57;7.57;;;6.87;;
20140;SDS011;10231;47.702;9.826;2022-08-18T04:49:24;6.57;;;5.97;;
20140;SDS011;10231;47.702;9.826;2022-08-18T04:51:50;7.10;;;6.37;;
20140;SDS011;10231;47.702;9.826;2022-08-18T04:54:36;7.70;;;7.10;;
20140;SDS011;10231;47.702;9.826;2022-08-18T04:57:07;6.93;;;6.33;;
20140;SDS011;10231;47.702;9.826;2022-08-18T04:59:39;6.77;;;6.17;;
20140;SDS011;10231;47.702;9.826;2022-08-18T05:02:07;6.30;;;5.80;;
20140;SDS011;10231;47.702;9.826;2022-08-18T05:04:35;8.10;;;7.40;;
20140;SDS011;10231;47.702;9.826;2022-08-18T05:07:03;7.57;;;6.87;;
20140;SDS011;10231;47.702;9.826;2022-08-18T05:09:30;7.53;;;6.90;;
20140;SDS011;10231;47.702;9.826;2022-08-18T05:11:55;6.80;;;6.30;;
20140;SDS011;10231;47.702;9.826;2022-08-18T05:14:21;7.90;;;7.30;;
20140;SDS011;10231;47.702;9.826;2022-08-18T05:16:47;7.07;;;6.37;;
20140;SDS011;10231;47.702;9.826;2022-08-18T05:19:13;7.77;;;7.07;;
20140;SDS011;10231;47.702;9.826;2022-08-18T05:21:39;8.00;;;7.30;;
20140;SDS011;10231;47.702;9.826;2022-08-18T05:24:06;6.47;;;5.87;;
20140;SDS011;10231;47.702;9.826;2022-08-18T05:26:33;7.67;;;7.07;;
20140;SDS011;10231;47.702;9.826;2022-08-18T05:29:00;7.20;;;6.60;;
20140;SDS011;10231;47.702;9.826;2022-08-18T05:31:26;6.93;;;6.43;;
20140;SDS011;10231;47.702;9.826;2022-08-18T05:33:53;7.70;;;7.10;;
20140;SDS011;10231;47.702;9.826;2022-08-18T05:44:17;7.37;;;6.77;;
20140;SDS011;10231;47.702;9.826;2022-08-18T05:46:50;7.90;;;7.10;;
20140;SDS011;10231;47.702;9.826;2022-08-18T05:49:18;6.83;;;6.23;;
20140;SDS011;10231;47.702;9.826;2022-08-18T05:51:47;7.23;;;6.63;;
20140;SDS011;10231;47.702;9.826;2022-08-18T05:54:15;7.70;;;7.00;;
20140;SDS011;10231;47.702;9.826;2022-08-18T05:57:14;6.77;;;6.17;;
20140;SDS011;10231;47.702;9.826;2022-08-18T05:59:43;7.37;;;6.67;;
20140;SDS011;10231;47.702;9.826;2022-08-18T06:04:52;7.10;;;6.50;;
20140;SDS011;10231;47.702;9.826;2022-08-18T06:07:27;6.40;;;5.90;;
20140;SDS011;10231;47.702;9.826;2022-08-18T06:10:00;6.87;;;6.30;;
20140;SDS011;10231;47.702;9.826;2022-08-18T06:12:36;6.97;;;6.30;;
20140;SDS011;10231;47.702;9.826;2022-08-18T06:15:13;7.33;;;6.63;;
20140;SDS011;10231;47.702;9.826;2022-08-18T06:29:21;6.90;;;6.30;;
20140;SDS011;10231;47.702;9.826;2022-08-18T06:35:07;7.20;;;6.60;;
20140;SDS011;10231;47.702;9.826;2022-08-18T06:38:08;7.50;;;6.77;;
20140;SDS011;10231;47.702;9.826;2022-08-18T06:41:02;7.40;;;6.80;;
20140;SDS011;10231;47.702;9.826;2022-08-18T06:43:58;7.20;;;6.67;;
20140;SDS011;10231;47.702;9.826;2022-08-18T06:46:43;6.90;;;6.30;;
20140;SDS011;10231;47.702;9.826;2022-08-18T06:49:44;7.30;;;6.70;;
20140;SDS011;10231;47.702;9.826;2022-08-18T06:54:46;7.03;;;6.47;;
20140;SDS011;10231;47.702;9.826;2022-08-18T06:59:55;7.30;;;6.70;;
20140;SDS011;10231;47.702;9.826;2022-08-18T07:05:30;7.90;;;7.20;;
20140;SDS011;10231;47.702;9.826;2022-08-18T07:10:54;7.70;;;7.00;;
20140;SDS011;10231;47.702;9.826;2022-08-18T07:13:36;7.23;;;6.53;;
20140;SDS011;10231;47.702;9.826;2022-08-18T07:18:41;7.90;;;7.10;;
20140;SDS011;10231;47.702;9.826;2022-08-18T07:21:07;7.17;;;6.50;;
20140;SDS011;10231;47.702;9.826;2022-08-18T07:23:35;7.17;;;6.57;;
20140;SDS011;10231;47.702;9.826;2022-08-18T07:28:36;6.30;;;5.80;;
20140;SDS011;10231;47.702;9.826;2022-08-18T07:33:37;7.33;;;6.67;;
20140;SDS011;10231;47.702;9.826;2022-08-18T07:36:07;6.50;;;6.00;;
20140;SDS011;10231;47.702;9.826;2022-08-18T07:38:42;6.23;;;5.73;;
20140;SDS011;10231;47.702;9.826;2022-08-18T07:41:31;5.70;;;5.30;;
20140;SDS011;10231;47.702;9.826;2022-08-18T07:44:04;6.33;;;5.83;;
20140;SDS011;10231;47.702;9.826;2022-08-18T07:49:26;5.87;;;5.27;;
20140;SDS011;10231;47.702;9.826;2022-08-18T07:54:41;6.00;;;5.57;;
20140;SDS011;10231;47.702;9.826;2022-08-18T08:00:03;5.30;;;4.90;;
20140;SDS011;10231;47.702;9.826;2022-08-18T08:05:17;5.60;;;5.20;;
20140;SDS011;10231;47.702;9.826;2022-08-18T08:08:24;6.23;;;5.73;;
20140;SDS011;10231;47.702;9.826;2022-08-18T08:11:01;6.00;;;5.50;;
20140;SDS011;10231;47.702;9.826;2022-08-18T08:21:47;6.27;;;5.83;;
20140;SDS011;10231;47.702;9.826;2022-08-18T08:24:31;5.87;;;5.47;;
20140;SDS011;10231;47.702;9.826;2022-08-18T08:32:20;6.00;;;5.60;;
20140;SDS011;10231;47.702;9.826;2022-08-18T08:34:58;6.10;;;5.50;;
20140;SDS011;10231;47.702;9.826;2022-08-18T08:37:53;5.10;;;4.70;;
20140;SDS011;10231;47.702;9.826;2022-08-18T08:40:32;6.40;;;5.70;;
20140;SDS011;10231;47.702;9.826;2022-08-18T08:43:31;6.27;;;5.60;;
20140;SDS011;10231;47.702;9.826;2022-08-18T08:48:43;5.50;;;5.10;;
20140;SDS011;10231;47.702;9.826;2022-08-18T08:54:04;5.30;;;4.90;;
20140;SDS011;10231;47.702;9.826;2022-08-18T08:56:50;4.90;;;4.57;;
20140;SDS011;10231;47.702;9.826;2022-08-18T08:59:20;5.90;;;5.50;;
20140;SDS011;10231;47.702;9.826;2022-08-18T09:01:52;5.47;;;5.07;;
20140;SDS011;10231;47.702;9.826;2022-08-18T09:04:27;6.00;;;5.50;;
20140;SDS011;10231;47.702;9.826;2022-08-18T09:23:31;5.80;;;5.30;;
20140;SDS011;10231;47.702;9.826;2022-08-18T09:28:57;6.47;;;5.97;;
20140;SDS011;10231;47.702;9.826;2022-08-18T09:31:34;7.03;;;6.43;;
20140;SDS011;10231;47.702;9.826;2022-08-18T09:36:57;5.73;;;5.23;;
20140;SDS011;10231;47.702;9.826;2022-08-18T09:39:39;6.43;;;5.97;;
20140;SDS011;10231;47.702;9.826;2022-08-18T09:45:10;6.53;;;6.00;;
20140;SDS011;10231;47.702;9.826;2022-08-18T09:52:54;6.67;;;6.07;;
20140;SDS011;10231;47.702;9.826;2022-08-18T09:57:47;7.27;;;6.67;;
20140;SDS011;10231;47.702;9.826;2022-08-18T10:00:37;7.23;;;6.63;;
20140;SDS011;10231;47.702;9.826;2022-08-18T10:03:09;7.53;;;6.97;;
20140;SDS011;10231;47.702;9.826;2022-08-18T10:05:37;7.90;;;7.20;;
20140;SDS011;10231;47.702;9.826;2022-08-18T10:16:13;7.17;;;6.53;;
20140;SDS011;10231;47.702;9.826;2022-08-18T10:24:29;6.63;;;6.03;;
20140;SDS011;10231;47.702;9.826;2022-08-18T10:30:05;5.77;;;5.20;;
20140;SDS011;10231;47.702;9.826;2022-08-18T10:32:58;5.70;;;5.27;;
20140;SDS011;10231;47.702;9.826;2022-08-18T10:38:12;5.90;;;5.40;;
20140;SDS011;10231;47.702;9.826;2022-08-18T10:40:41;6.07;;;5.67;;
20140;SDS011;10231;47.702;9.826;2022-08-18T10:43:18;5.97;;;5.47;;
20140;SDS011;10231;47.702;9.826;2022-08-18T10:45:50;5.77;;;5.37;;
20140;SDS011;10231;47.702;9.826;2022-08-18T10:48:21;5.90;;;5.40;;
20140;SDS011;10231;47.702;9.826;2022-08-18T10:51:01;5.93;;;5.50;;
20140;SDS011;10231;47.702;9.826;2022-08-18T10:56:03;5.70;;;5.20;;
20140;SDS011;10231;47.702;9.826;2022-08-18T11:04:07;5.80;;;5.40;;
20140;SDS011;10231;47.702;9.826;2022-08-18T11:07:02;6.03;;;5.53;;
20140;SDS011;10231;47.702;9.826;2022-08-18T11:09:30;5.70;;;5.20;;
20140;SDS011;10231;47.702;9.826;2022-08-18T11:11:58;6.10;;;5.60;;
20140;SDS011;10231;47.702;9.826;2022-08-18T11:20:00;6.07;;;5.47;;
20140;SDS011;10231;47.702;9.826;2022-08-18T11:22:31;5.73;;;5.27;;
20140;SDS011;10231;47.702;9.826;2022-08-18T11:24:59;5.90;;;5.40;;
20140;SDS011;10231;47.702;9.826;2022-08-18T11:27:26;5.27;;;4.77;;
20140;SDS011;10231;47.702;9.826;2022-08-18T11:29:57;5.33;;;4.93;;
20140;SDS011;10231;47.702;9.826;2022-08-18T11:32:26;5.93;;;5.43;;
20140;SDS011;10231;47.702;9.826;2022-08-18T11:45:21;7.50;;;6.90;;
20140;SDS011;10231;47.702;9.826;2022-08-18T12:04:31;8.50;;;7.70;;
20140;SDS011;10231;47.702;9.826;2022-08-18T12:07:43;8.30;;;7.67;;
20140;SDS011;10231;47.702;9.826;2022-08-18T12:12:47;8.30;;;7.60;;
20140;SDS011;10231;47.702;9.826;2022-08-18T12:17:44;8.17;;;7.47;;
20140;SDS011;10231;47.702;9.826;2022-08-18T12:20:11;8.53;;;7.93;;
20140;SDS011;10231;47.702;9.826;2022-08-18T12:22:38;7.77;;;7.07;;
20140;SDS011;10231;47.702;9.826;2022-08-18T12:25:08;8.70;;;8.00;;
20140;SDS011;10231;47.702;9.826;2022-08-18T12:27:37;8.47;;;7.67;;
20140;SDS011;10231;47.702;9.826;2022-08-18T12:30:03;8.90;;;8.00;;
20140;SDS011;10231;47.702;9.826;2022-08-18T12:32:31;8.33;;;7.73;;
20140;SDS011;10231;47.702;9.826;2022-08-18T12:34:59;8.17;;;7.57;;
20140;SDS011;10231;47.702;9.826;2022-08-18T12:37:25;8.23;;;7.53;;
20140;SDS011;10231;47.702;9.826;2022-08-18T12:39:53;8.40;;;7.80;;
20140;SDS011;10231;47.702;9.826;2022-08-18T12:42:21;8.23;;;7.50;;
20140;SDS011;10231;47.702;9.826;2022-08-18T12:44:47;8.40;;;7.70;;
20140;SDS011;10231;47.702;9.826;2022-08-18T12:47:13;8.00;;;7.33;;
20140;SDS011;10231;47.702;9.826;2022-08-18T12:49:47;7.43;;;6.83;;
20140;SDS011;10231;47.702;9.826;2022-08-18T12:52:14;6.70;;;6.20;;
20140;SDS011;10231;47.702;9.826;2022-08-18T12:54:39;7.83;;;7.13;;
20140;SDS011;10231;47.702;9.826;2022-08-18T12:57:08;7.87;;;7.17;;
20140;SDS011;10231;47.702;9.826;2022-08-18T12:59:49;6.97;;;6.40;;
20140;SDS011;10231;47.702;9.826;2022-08-18T13:02:15;7.80;;;7.20;;
20140;SDS011;10231;47.702;9.826;2022-08-18T13:04:41;7.37;;;6.80;;
20140;SDS011;10231;47.702;9.826;2022-08-18T13:07:06;7.60;;;7.00;;
20140;SDS011;10231;47.702;9.826;2022-08-18T13:09:35;7.27;;;6.60;;
20140;SDS011;10231;47.702;9.826;2022-08-18T13:12:02;7.47;;;6.87;;
20140;SDS011;10231;47.702;9.826;2022-08-18T13:14:28;7.27;;;6.60;;
20140;SDS011;10231;47.702;9.826;2022-08-18T13:16:54;6.93;;;6.33;;
20140;SDS011;10231;47.702;9.826;2022-08-18T13:19:19;6.83;;;6.23;;
20140;SDS011;10231;47.702;9.826;2022-08-18T13:21:45;7.10;;;6.57;;
20140;SDS011;10231;47.702;9.826;2022-08-18T13:24:11;6.50;;;6.00;;
20140;SDS011;10231;47.702;9.826;2022-08-18T13:26:38;6.43;;;5.93;;
20140;SDS011;10231;47.702;9.826;2022-08-18T13:29:06;6.47;;;5.97;;
20140;SDS011;10231;47.702;9.826;2022-08-18T13:31:32;8.57;;;7.77;;
20140;SDS011;10231;47.702;9.826;2022-08-18T13:33:58;8.07;;;7.47;;
20140;SDS011;10231;47.702;9.826;2022-08-18T13:36:24;8.70;;;7.63;;
20140;SDS011;10231;47.702;9.826;2022-08-18T13:38:51;11.77;;;7.47;;
20140;SDS011;10231;47.702;9.826;2022-08-18T13:41:18;9.87;;;7.13;;
20140;SDS011;10231;47.702;9.826;2022-08-18T13:43:44;8.80;;;8.10;;
20140;SDS011;10231;47.702;9.826;2022-08-18T13:46:11;9.23;;;8.43;;
20140;SDS011;10231;47.702;9.826;2022-08-18T13:48:39;8.03;;;7.23;;
20140;SDS011;10231;47.702;9.826;2022-08-18T13:51:07;10.07;;;8.17;;
20140;SDS011;10231;47.702;9.826;2022-08-18T13:53:38;7.77;;;7.17;;
20140;SDS011;10231;47.702;9.826;2022-08-18T13:56:04;8.10;;;7.50;;
20140;SDS011;10231;47.702;9.826;2022-08-18T13:58:30;8.00;;;7.27;;
20140;SDS011;10231;47.702;9.826;2022-08-18T14:00:58;8.20;;;7.50;;
20140;SDS011;10231;47.702;9.826;2022-08-18T14:03:26;7.87;;;7.20;;
20140;SDS011;10231;47.702;9.826;2022-08-18T14:05:52;8.63;;;7.83;;
20140;SDS011;10231;47.702;9.826;2022-08-18T14:08:22;7.73;;;7.13;;
20140;SDS011;10231;47.702;9.826;2022-08-18T14:14:10;7.83;;;7.23;;
20140;SDS011;10231;47.702;9.826;2022-08-18T14:16:36;8.07;;;7.37;;
20140;SDS011;10231;47.702;9.826;2022-08-18T14:19:02;8.23;;;7.43;;
20140;SDS011;10231;47.702;9.826;2022-08-18T14:25:08;7.70;;;7.10;;
20140;SDS011;10231;47.702;9.826;2022-08-18T14:27:53;6.80;;;6.30;;
20140;SDS011;10231;47.702;9.826;2022-08-18T14:30:18;8.60;;;7.83;;
20140;SDS011;10231;47.702;9.826;2022-08-18T14:32:44;7.40;;;6.80;;
20140;SDS011;10231;47.702;9.826;2022-08-18T14:35:11;8.17;;;7.50;;
20140;SDS011;10231;47.702;9.826;2022-08-18T14:37:38;9.07;;;7.37;;
20140;SDS011;10231;47.702;9.826;2022-08-18T14:40:04;8.63;;;7.83;;
20140;SDS011;10231;47.702;9.826;2022-08-18T14:42:32;7.97;;;7.17;;
20140;SDS011;10231;47.702;9.826;2022-08-18T14:44:58;7.70;;;6.90;;
20140;SDS011;10231;47.702;9.826;2022-08-18T14:47:24;7.17;;;6.57;;
20140;SDS011;10231;47.702;9.826;2022-08-18T14:49:52;7.27;;;6.70;;
20140;SDS011;10231;47.702;9.826;2022-08-18T14:52:21;7.90;;;7.30;;
20140;SDS011;10231;47.702;9.826;2022-08-18T14:54:48;8.10;;;7.30;;
20140;SDS011;10231;47.702;9.826;2022-08-18T14:57:14;8.83;;;8.03;;
20140;SDS011;10231;47.702;9.826;2022-08-18T14:59:40;8.67;;;7.90;;
20140;SDS011;10231;47.702;9.826;2022-08-18T15:02:06;8.33;;;7.63;;
20140;SDS011;10231;47.702;9.826;2022-08-18T15:04:34;8.10;;;7.40;;
20140;SDS011;10231;47.702;9.826;2022-08-18T15:07:00;8.03;;;7.43;;
20140;SDS011;10231;47.702;9.826;2022-08-18T15:09:26;8.37;;;7.67;;
20140;SDS011;10231;47.702;9.826;2022-08-18T15:11:54;8.43;;;7.73;;
20140;SDS011;10231;47.702;9.826;2022-08-18T15:14:22;8.37;;;7.70;;
20140;SDS011;10231;47.702;9.826;2022-08-18T15:16:50;8.90;;;8.10;;
20140;SDS011;10231;47.702;9.826;2022-08-18T15:19:16;9.10;;;8.30;;
20140;SDS011;10231;47.702;9.826;2022-08-18T15:21:42;9.27;;;8.37;;
20140;SDS011;10231;47.702;9.826;2022-08-18T15:24:26;9.23;;;8.43;;
20140;SDS011;10231;47.702;9.826;2022-08-18T15:27:10;9.27;;;8.53;;
20140;SDS011;10231;47.702;9.826;2022-08-18T15:29:36;9.07;;;8.27;;
20140;SDS011;10231;47.702;9.826;2022-08-18T15:32:01;9.03;;;8.23;;
20140;SDS011;10231;47.702;9.826;2022-08-18T15:34:28;9.37;;;8.47;;
20140;SDS011;10231;47.702;9.826;2022-08-18T15:36:54;9.87;;;8.97;;
20140;SDS011;10231;47.702;9.826;2022-08-18T15:39:21;13.33;;;9.40;;
20140;SDS011;10231;47.702;9.826;2022-08-18T15:41:47;11.27;;;9.70;;
20140;SDS011;10231;47.702;9.826;2022-08-18T15:44:14;11.13;;;9.97;;
20140;SDS011;10231;47.702;9.826;2022-08-18T15:46:42;17.93;;;10.23;;
20140;SDS011;10231;47.702;9.826;2022-08-18T15:49:08;12.77;;;11.17;;
20140;SDS011;10231;47.702;9.826;2022-08-18T15:51:34;12.53;;;10.83;;
20140;SDS011;10231;47.702;9.826;2022-08-18T15:54:01;11.90;;;10.70;;
20140;SDS011;10231;47.702;9.826;2022-08-18T15:56:28;11.43;;;10.43;;
20140;SDS011;10231;47.702;9.826;2022-08-18T15:58:53;11.37;;;10.03;;
20140;SDS011;10231;47.702;9.826;2022-08-18T16:01:20;11.40;;;10.40;;
20140;SDS011;10231;47.702;9.826;2022-08-18T16:03:47;11.87;;;10.77;;
20140;SDS011;10231;47.702;9.826;2022-08-18T16:06:15;12.23;;;11.13;;
20140;SDS011;10231;47.702;9.826;2022-08-18T16:08:43;11.73;;;10.73;;
20140;SDS011;10231;47.702;9.826;2022-08-18T16:11:09;12.20;;;11.10;;
20140;SDS011;10231;47.702;9.826;2022-08-18T16:13:39;13.87;;;11.03;;
20140;SDS011;10231;47.702;9.826;2022-08-18T16:16:13;12.47;;;11.17;;
20140;SDS011;10231;47.702;9.826;2022-08-18T16:18:41;13.00;;;11.73;;
20140;SDS011;10231;47.702;9.826;2022-08-18T16:21:09;12.37;;;11.30;;
20140;SDS011;10231;47.702;9.826;2022-08-18T16:23:37;12.57;;;11.30;;
20140;SDS011;10231;47.702;9.826;2022-08-18T16:26:04;12.93;;;11.63;;
20140;SDS011;10231;47.702;9.826;2022-08-18T16:28:30;10.67;;;9.67;;
20140;SDS011;10231;47.702;9.826;2022-08-18T16:30:56;10.00;;;9.07;;
20140;SDS011;10231;47.702;9.826;2022-08-18T16:33:22;9.60;;;8.70;;
20140;SDS011;10231;47.702;9.826;2022-08-18T16:35:48;9.20;;;8.30;;
20140;SDS011;10231;47.702;9.826;2022-08-18T16:38:16;7.50;;;6.80;;
20140;SDS011;10231;47.702;9.826;2022-08-18T16:40:42;7.87;;;7.27;;
20140;SDS011;10231;47.702;9.826;2022-08-18T16:43:08;8.17;;;7.40;;
20140;SDS011;10231;47.702;9.826;2022-08-18T16:45:35;7.43;;;6.83;;
20140;SDS011;10231;47.702;9.826;2022-08-18T16:48:01;6.97;;;6.37;;
20140;SDS011;10231;47.702;9.826;2022-08-18T16:50:27;5.30;;;4.90;;
20140;SDS011;10231;47.702;9.826;2022-08-18T16:52:53;5.53;;;5.10;;
20140;SDS011;10231;47.702;9.826;2022-08-18T16:55:20;5.07;;;4.63;;
20140;SDS011;10231;47.702;9.826;2022-08-18T16:57:45;4.40;;;4.10;;
20140;SDS011;10231;47.702;9.826;2022-08-18T17:00:31;4.33;;;4.03;;
20140;SDS011;10231;47.702;9.826;2022-08-18T17:03:16;5.20;;;4.80;;
20140;SDS011;10231;47.702;9.826;2022-08-18T17:06:12;4.27;;;3.87;;
20140;SDS011;10231;47.702;9.826;2022-08-18T17:08:40;3.70;;;3.50;;
20140;SDS011;10231;47.702;9.826;2022-08-18T17:11:08;3.20;;;3.00;;
20140;SDS011;10231;47.702;9.826;2022-08-18T17:13:41;2.60;;;2.40;;
20140;SDS011;10231;47.702;9.826;2022-08-18T17:16:08;1.90;;;1.80;;
20140;SDS011;10231;47.702;9.826;2022-08-18T17:18:34;1.30;;;1.20;;
20140;SDS011;10231;47.702;9.826;2022-08-18T17:21:02;1.23;;;1.23;;
20140;SDS011;10231;47.702;9.826;2022-08-18T17:23:28;1.47;;;1.30;;
20140;SDS011;10231;47.702;9.826;2022-08-18T17:25:55;1.90;;;1.70;;
20140;SDS011;10231;47.702;9.826;2022-08-18T17:28:21;1.17;;;1.17;;
20140;SDS011;10231;47.702;9.826;2022-08-18T17:30:53;1.73;;;1.57;;
20140;SDS011;10231;47.702;9.826;2022-08-18T17:33:26;1.97;;;1.87;;
20140;SDS011;10231;47.702;9.826;2022-08-18T17:35:56;2.53;;;2.43;;
20140;SDS011;10231;47.702;9.826;2022-08-18T17:38:31;2.63;;;2.50;;
20140;SDS011;10231;47.702;9.826;2022-08-18T17:41:07;3.07;;;2.87;;
20140;SDS011;10231;47.702;9.826;2022-08-18T17:43:36;4.57;;;4.17;;
20140;SDS011;10231;47.702;9.826;2022-08-18T17:46:04;5.03;;;4.63;;
20140;SDS011;10231;47.702;9.826;2022-08-18T17:48:43;5.17;;;4.77;;
20140;SDS011;10231;47.702;9.826;2022-08-18T17:54:08;6.60;;;6.00;;
20140;SDS011;10231;47.702;9.826;2022-08-18T17:56:41;6.70;;;6.20;;
20140;SDS011;10231;47.702;9.826;2022-08-18T17:59:17;6.80;;;6.20;;
20140;SDS011;10231;47.702;9.826;2022-08-18T18:04:55;9.00;;;8.20;;
20140;SDS011;10231;47.702;9.826;2022-08-18T18:07:25;10.00;;;9.13;;
20140;SDS011;10231;47.702;9.826;2022-08-18T18:09:58;10.60;;;9.70;;
20140;SDS011;10231;47.702;9.826;2022-08-18T18:12:28;10.40;;;9.50;;
20140;SDS011;10231;47.702;9.826;2022-08-18T18:14:56;10.87;;;9.87;;